Sunday, October 21, 2018, 6:45 AM EDT
Back to Local

KWST, Westerly State Airport

Location: Westerly, RI, United States Lat: 41.35
Local Time: 6:45 AM EDT (10:45 GMT) Lon: -71.8
Time Zone: US/Eastern Elev: 82 ft

Show me the last for .
Show Decoded

2018-10-21 05:53 METAR KWST 210953Z AUTO 35008KT 10SM OVC047 09/07 A2961 RMK AO2 RAE09 SLP026
                 P0000 T00940072 $ =
2018-10-21 04:53 METAR KWST 210853Z AUTO 34009KT 10SM -RA SCT060 BKN075 OVC090 09/08 A2957 RMK
                 AO2 SLP013 P0000 60000 T00940078 53002 $ =
2018-10-21 03:53 METAR KWST 210753Z AUTO 35006KT 10SM -RA SCT048 BKN055 OVC070 09/08 A2957 RMK
                 AO2 RAB43 SLP011 P0000 T00940078 $ =
2018-10-21 02:53 METAR KWST 210653Z AUTO 00000KT 10SM CLR 08/08 A2956 RMK AO2 SLP008 T00780078 $
                 =
2018-10-21 01:53 METAR KWST 210553Z AUTO 36003KT 10SM SCT090 07/07 A2957 RMK AO2 SLP011 T00720072
                 10133 20061 58017 $ =
2018-10-21 00:53 METAR KWST 210453Z AUTO 00000KT 10SM CLR 07/06 A2959 RMK AO2 SLP018 T00670061
                 401780067 $ =
2018-10-20 23:53 METAR KWST 210353Z AUTO 00000KT 10SM CLR 07/07 A2961 RMK AO2 SLP027 T00720072 $
                 =
2018-10-20 22:53 METAR KWST 210253Z AUTO 00000KT 10SM CLR 08/07 A2962 RMK AO2 SLP029 T00780072
                 53002 $ =
2018-10-20 21:53 METAR KWST 210153Z AUTO 00000KT 10SM CLR 09/08 A2961 RMK AO2 SLP026 T00940083 $
                 =
2018-10-20 20:53 METAR KWST 210053Z AUTO 00000KT 10SM CLR 11/09 A2961 RMK AO2 SLP025 T01110089 $
                 =
2018-10-20 19:53 METAR KWST 202353Z AUTO 33006KT 10SM FEW050 SCT065 14/11 A2961 RMK AO2 SLP026
                 T01390106 10178 20133 53011 $ =
2018-10-20 18:53 METAR KWST 202253Z AUTO VRB03KT 10SM FEW049 14/11 A2960 RMK AO2 SLP021 T01440106
                 $ =
2018-10-20 17:53 METAR KWST 202153Z AUTO 26008G14KT 10SM CLR 16/11 A2959 RMK AO2 SLP019 T01560106
                 $ =
2018-10-20 16:53 METAR KWST 202053Z AUTO 25009G16KT 10SM CLR 17/11 A2958 RMK AO2 SLP016 T01670111
                 56019 $ =
2018-10-20 15:53 METAR KWST 201953Z AUTO 23010G16KT 10SM FEW035 SCT043 17/11 A2960 RMK AO2 SLP022
                 T01720111 $ =
2018-10-20 14:53 METAR KWST 201853Z AUTO 24010G16KT 10SM SCT035 18/11 A2961 RMK AO2 SLP025
                 T01780106 $ =
2018-10-20 13:53 METAR KWST 201753Z AUTO 25011G16KT 10SM FEW035 17/11 A2964 RMK AO2 SLP034
                 T01720111 10178 20150 58019 $ =
2018-10-20 12:53 METAR KWST 201653Z AUTO 24009G17KT 10SM OVC031 16/11 A2966 RMK AO2 SLP044
                 T01610111 $ =
2018-10-20 12:46 METAR KWST 201646Z AUTO 24010G18KT 10SM SCT026 OVC031 16/11 A2966 RMK AO2
                 T01610111 $ =
2018-10-20 11:53 METAR KWST 201553Z AUTO 25012G18KT 10SM BKN020 BKN026 OVC031 17/13 A2968 RMK AO2
                 SLP048 T01720128 $ =
2018-10-20 11:12 METAR KWST 201512Z AUTO 24011G24KT 10SM BKN021 17/13 A2969 RMK AO2 T01720128 $ =
2018-10-20 10:53 METAR KWST 201453Z AUTO 24012G21KT 10SM SCT019 17/13 A2969 RMK AO2 SLP054
                 T01720128 58015 $ =
2018-10-20 09:53 METAR KWST 201353Z AUTO 24010G16KT 10SM BKN016 BKN023 OVC065 16/13 A2973 RMK AO2
                 SLP066 T01560133 $ =
2018-10-20 09:44 METAR KWST 201344Z AUTO 24009G19KT 10SM SCT017 BKN024 OVC065 16/13 A2973 RMK AO2
                 T01560128 $ =
2018-10-20 09:05 METAR KWST 201305Z AUTO 23012G22KT 10SM SCT018 BKN046 OVC060 15/13 A2974 RMK AO2
                 T01500128 $ =
2018-10-20 08:53 METAR KWST 201253Z AUTO 24011G19KT 10SM SCT018 BKN023 OVC060 15/13 A2974 RMK AO2
                 SLP070 T01500128 $ =
2018-10-20 08:44 METAR KWST 201244Z AUTO 24011G20KT 10SM SCT018 BKN028 OVC060 15/13 A2974 RMK AO2
                 T01500128 $ =
2018-10-20 07:53 METAR KWST 201153Z AUTO 23015G22KT 10SM FEW019 BKN050 OVC065 15/12 A2974 RMK AO2
                 SLP068 60001 70001 T01500122 10167 20150 56017 $ =
2018-10-20 06:53 METAR KWST 201053Z AUTO 23012G20KT 10SM OVC065 15/11 A2975 RMK AO2 RAB27E40
                 SLP074 P0000 T01500106 $ =

Support USWX by starting your Amazon purchase here.